This is the latest recevied weather packets stored in our database for station/object KM4KMS. If no packets are shown the sender has not sent any weather packets the latest 10 day(s).
| Time | Temp. | Humidity | Pressure | Rain* | Wind** | Luminosity | Snow |
|---|---|---|---|---|---|---|---|
| 1777758532 | 11.11° C | 61% | 1016.2 hPa | 0 mm | - | 66 W/m² | - |
| 1777758228 | 11.11° C | 60% | 1016.1 hPa | 0 mm | - | 73 W/m² | - |
| 1777757926 | 11.11° C | 58% | 1016 hPa | 0 mm | - | 97 W/m² | - |
| 1777757623 | 11.11° C | 59% | 1016.2 hPa | 0 mm | - | 100 W/m² | - |
| 1777757322 | 11.11° C | 60% | 1016.1 hPa | 0 mm | - | 103 W/m² | - |
| 1777757020 | 11.67° C | 58% | 1015.9 hPa | 0 mm | - | 110 W/m² | - |
| 1777756717 | 11.67° C | 58% | 1016 hPa | 0 mm | - | 102 W/m² | - |
| 1777756412 | 11.67° C | 56% | 1016.3 hPa | 0 mm | - | 106 W/m² | - |
| 1777756110 | 12.22° C | 57% | 1016 hPa | 0 mm | - | 159 W/m² | - |
| 1777755807 | 12.78° C | 54% | 1016.2 hPa | 0 mm | - | 308 W/m² | - |
| 1777755504 | 12.22° C | 59% | 1016 hPa | 0 mm | - | 296 W/m² | - |
| 1777755200 | 12.22° C | 58% | 1015.9 hPa | 0 mm | - | 286 W/m² | - |
| 1777754897 | 12.22° C | 55% | 1016 hPa | 0 mm | - | 248 W/m² | - |
| 1777754594 | 12.22° C | 56% | 1016.1 hPa | 0 mm | - | 230 W/m² | - |
| 1777754292 | 12.22° C | 57% | 1016.1 hPa | 0 mm | - | 237 W/m² | - |
| 1777753989 | 11.67° C | 53% | 1016.1 hPa | 0 mm | - | 232 W/m² | - |
| 1777753689 | 11.67° C | 54% | 1016.3 hPa | 0 mm | - | 209 W/m² | - |
| 1777753387 | 11.67° C | 59% | 1016.2 hPa | 0 mm | - | 206 W/m² | - |
| 1777753085 | 11.67° C | 60% | 1016.3 hPa | 0 mm | - | 152 W/m² | - |
| 1777752781 | 11.67° C | 60% | 1016.4 hPa | 0 mm | - | 150 W/m² | - |
| 1777752477 | 11.67° C | 57% | 1016.2 hPa | 0 mm | - | 160 W/m² | - |
| 1777752173 | 11.67° C | 61% | 1016.4 hPa | 0 mm | - | 120 W/m² | - |
| 1777751872 | 11.67° C | 58% | 1016.5 hPa | 0 mm | - | 102 W/m² | - |
| 1777751568 | 11.67° C | 61% | 1016.4 hPa | 0 mm | - | 115 W/m² | - |
| 1777751264 | 11.67° C | 58% | 1016.4 hPa | 0 mm | - | 157 W/m² | - |
* Rain latest hour (hover to see other rain measurements)
** Current wind speed in m/s (hover to see current wind gust speed)